Latest Weather Observations for Mangrove Mountain

IDN60901

Issued at 10:11 pm EST Friday 28 April 2017 (issued every 10 minutes, with the page automatically refreshed every 10 minutes)

About weather observations | Map of Sydney area stations | Latest observations for Sydney area | Other Formats
Station Details ID: 061375 Name: MANGROVE MOUNTAIN AWS Lat: -33.29 Lon: 151.21 Height: 305.0 m
Data from the previous 72 hours. | See also: Recent months at Mangrove Mountain
Date/Time
EST
Temp
°C
App
Temp
°C
Dew
Point
°C
Rel
Hum
%
Delta-T
°C
Wind Press
QNH
hPa
Press
MSL
hPa
Rain since
9am
mm
Dir  Spd
km/h
Gust
km/h
Spd
kts
Gust
kts
28/10:00pm 8.5 7.9 7.6 94 0.4 CALM 0 0 0 0 - - 0.0
28/09:30pm 8.8 8.3 7.9 94 0.4 CALM 0 0 0 0 - - 0.0
28/09:00pm 9.1 8.7 8.2 94 0.4 CALM 0 0 0 0 - - 0.0
28/08:30pm 9.2 8.8 8.3 94 0.4 CALM 0 0 0 0 - - 0.0
28/08:00pm 9.3 8.9 8.2 93 0.5 CALM 0 0 0 0 - - 0.0
28/07:30pm 9.3 8.8 7.9 91 0.7 CALM 0 0 0 0 - - 0.0
28/07:00pm 9.8 9.4 8.2 90 0.8 CALM 0 2 0 1 - - 0.0
28/06:30pm 10.1 9.2 7.9 86 1.1 E 2 4 1 2 - - 0.0
28/06:00pm 11.0 10.2 8.1 82 1.4 SE 2 4 1 2 - - 0.0
28/05:30pm 12.5 11.7 8.0 74 2.2 ESE 2 6 1 3 - - 0.0
28/05:00pm 14.6 13.2 7.4 62 3.6 S 4 9 2 5 - - 0.0
28/04:30pm 16.4 15.3 6.8 53 4.8 SSW 2 4 1 2 - - 0.0
28/04:00pm 17.1 15.5 6.3 49 5.4 SSW 4 7 2 4 - - 0.0
28/03:30pm 17.7 15.8 6.6 48 5.6 SW 6 13 3 7 - - 0.0
28/03:00pm 18.2 16.0 6.1 45 6.0 WSW 7 11 4 6 - - 0.0
28/02:30pm 18.2 16.0 6.1 45 6.0 WSW 7 15 4 8 - - 0.0
28/02:00pm 18.0 15.9 6.5 47 5.8 SW 7 13 4 7 - - 0.0
28/01:30pm 17.2 14.8 5.2 45 5.9 SW 7 13 4 7 - - 0.0
28/01:00pm 17.4 14.7 5.7 46 5.8 WSW 9 17 5 9 - - 0.0
28/12:30pm 16.9 14.7 6.1 49 5.4 SW 7 15 4 8 - - 0.0
28/12:00pm 16.2 13.9 5.8 50 5.1 SW 7 13 4 7 - - 0.0
28/11:30am 16.8 14.9 7.4 54 4.8 WSW 7 13 4 7 - - 0.0
28/11:00am 15.8 13.3 6.5 54 4.6 WSW 9 15 5 8 - - 0.0
28/10:30am 15.3 12.9 7.1 58 4.1 WSW 9 17 5 9 - - 0.0
28/10:00am 14.5 12.0 6.6 59 3.9 SW 9 19 5 10 - - 0.0
28/09:30am 14.4 12.5 6.5 59 3.9 WSW 6 9 3 5 - - 0.0
28/09:00am 12.7 10.2 4.9 59 3.7 SW 7 13 4 7 - - 0.0
28/08:30am 12.1 9.8 4.6 60 3.5 WSW 6 11 3 6 - - 0.0
28/08:00am 11.0 8.4 4.2 63 3.1 WSW 7 15 4 8 - - 0.0
28/07:30am 9.8 7.1 3.8 66 2.7 WSW 7 17 4 9 - - 0.0
28/07:00am 8.9 6.2 3.7 70 2.3 SW 7 13 4 7 - - 0.0
28/06:30am 8.5 5.8 3.8 72 2.1 WSW 7 13 4 7 - - 0.0
28/06:00am 8.5 6.0 3.9 73 2.0 SW 6 11 3 6 - - 0.0
28/05:30am 8.9 6.2 3.9 71 2.2 SW 7 13 4 7 - - 0.0
28/05:00am 8.7 6.6 4.1 73 2.0 SW 4 9 2 5 - - 0.0
28/04:30am 9.2 6.8 4.2 71 2.2 SW 6 11 3 6 - - 0.0
28/04:00am 9.8 7.5 4.6 70 2.4 SW 6 13 3 7 - - 0.0
28/03:30am 10.4 7.5 4.8 68 2.6 SW 9 20 5 11 - - 0.0
28/03:00am 11.2 8.8 5.1 66 2.8 SW 7 19 4 10 - - 0.0
28/02:30am 11.5 8.8 5.6 67 2.8 SSW 9 20 5 11 - - 0.0
28/02:00am 11.9 9.6 5.8 66 2.9 SSW 7 13 4 7 - - 0.0
28/01:30am 12.1 9.6 6.4 68 2.7 SW 9 26 5 14 - - 0.0
28/01:00am 12.3 9.9 6.8 69 2.7 SW 9 17 5 9 - - 0.0
28/12:30am 12.4 10.4 7.1 70 2.6 SW 7 15 4 8 - - 0.0
28/12:00am 12.5 10.5 7.2 70 2.6 SW 7 17 4 9 - - 0.0
 
Date/Time
EST
Temp
°C
App
Temp
°C
Dew
Point
°C
Rel
Hum
%
Delta-T
°C
Wind Press
QNH
hPa
Press
MSL
hPa
Rain since
9am
mm
Dir  Spd
km/h
Gust
km/h
Spd
kts
Gust
kts
27/11:30pm 12.0 10.2 7.3 73 2.3 SW 6 9 3 5 - - 0.0
27/11:00pm 11.6 9.7 6.7 72 2.4 WSW 6 11 3 6 - - 0.0
27/10:30pm 11.9 10.5 7.2 73 2.3 SW 4 7 2 4 - - 0.0
27/10:00pm 11.4 9.9 6.7 73 2.3 WSW 4 9 2 5 - - 0.0
27/09:30pm 11.8 10.2 6.3 69 2.6 WSW 4 7 2 4 - - 0.0
27/09:00pm 12.6 10.6 6.4 66 3.0 SW 6 9 3 5 - - 0.0
27/08:30pm 13.2 11.3 6.8 65 3.1 SW 6 11 3 6 - - 0.0
27/08:00pm 13.2 11.5 7.4 68 2.9 WSW 6 9 3 5 - - 0.0
27/07:30pm 13.1 11.5 8.0 71 2.6 SW 6 9 3 5 - - 0.0
27/07:00pm 12.4 11.3 8.3 76 2.1 WSW 4 6 2 3 - - 0.0
27/06:30pm 12.2 11.4 8.3 77 2.0 SSW 2 6 1 3 - - 0.0
27/06:00pm 12.1 11.3 8.2 77 2.0 SSW 2 4 1 2 - - 0.0
27/05:30pm 12.3 11.5 8.2 76 2.1 SSW 2 4 1 2 - - 0.0
27/05:00pm 13.5 12.6 7.9 69 2.8 S 2 6 1 3 - - 0.0
27/04:30pm 14.3 12.3 7.1 62 3.6 S 7 11 4 6 - - 0.0
27/04:00pm 15.7 13.6 5.9 52 4.8 S 6 9 3 5 - - 0.0
27/03:30pm 15.9 14.0 6.6 54 4.6 S 6 17 3 9 - - 0.0
27/03:00pm 16.1 13.4 5.7 50 5.1 S 9 15 5 8 - - 0.0
27/02:30pm 16.8 14.8 6.9 52 5.0 SW 7 15 4 8 - - 0.0
27/02:00pm 16.8 14.6 6.3 50 5.2 WSW 7 20 4 11 - - 0.0
27/01:30pm 16.0 13.4 5.9 51 5.0 SSW 9 17 5 9 - - 0.0
27/01:00pm 15.9 13.3 6.1 52 4.8 SW 9 15 5 8 - - 0.0
27/12:30pm 15.7 12.6 5.6 51 4.9 SW 11 19 6 10 - - 0.0
27/12:00pm 15.5 12.1 6.0 53 4.7 WSW 13 24 7 13 - - 0.0
27/11:30am 14.7 12.1 6.0 56 4.2 WSW 9 17 5 9 - - 0.0
27/11:00am 14.3 11.2 5.4 55 4.3 WSW 11 20 6 11 - - 0.0
27/10:30am 13.4 10.6 5.1 57 3.9 SW 9 17 5 9 - - 0.0
27/10:00am 12.4 9.2 5.3 62 3.3 SW 11 24 6 13 - - 0.0
27/09:30am 11.6 8.9 5.5 66 2.9 SW 9 20 5 11 - - 0.0
27/09:00am 11.4 9.1 5.9 69 2.6 WSW 7 17 4 9 - - 1.8
27/08:30am 11.0 8.9 6.6 74 2.1 WSW 7 13 4 7 - - 1.8
27/08:00am 11.3 9.4 7.4 77 1.9 W 7 13 4 7 - - 1.8
27/07:30am 9.1 7.9 8.2 94 0.4 W 4 6 2 3 - - 1.8
27/07:00am 8.0 6.5 6.8 92 0.6 WNW 4 6 2 3 - - 1.8
27/06:30am 8.1 6.4 6.1 87 0.9 W 4 6 2 3 - - 1.8
27/06:00am 8.8 6.8 6.1 83 1.3 W 6 7 3 4 - - 1.8
27/05:30am 9.1 7.1 6.4 83 1.3 WSW 6 7 3 4 - - 1.8
27/05:00am 9.4 7.5 6.7 83 1.3 W 6 11 3 6 - - 1.8
27/04:30am 9.6 7.7 6.9 83 1.3 WSW 6 9 3 5 - - 1.8
27/04:00am 9.0 7.2 7.0 87 1.0 WSW 6 9 3 5 - - 1.8
27/03:30am 8.7 6.8 6.8 88 0.9 WNW 6 6 3 3 - - 1.8
27/03:00am 9.7 8.0 7.6 87 1.0 WNW 6 9 3 5 - - 1.8
27/02:30am 9.8 7.9 7.6 86 1.1 WNW 7 9 4 5 - - 1.8
27/02:00am 9.9 8.3 7.8 87 1.0 WNW 6 7 3 4 - - 1.8
27/01:30am 9.9 8.2 7.5 85 1.2 WNW 6 9 3 5 - - 1.8
27/01:00am 10.0 8.0 7.3 83 1.3 WNW 7 9 4 5 - - 1.8
27/12:30am 9.9 8.1 7.2 83 1.3 WNW 6 9 3 5 - - 1.8
27/12:00am 9.9 7.8 6.8 81 1.5 WNW 7 11 4 6 - - 1.8
 
Date/Time
EST
Temp
°C
App
Temp
°C
Dew
Point
°C
Rel
Hum
%
Delta-T
°C
Wind Press
QNH
hPa
Press
MSL
hPa
Rain since
9am
mm
Dir  Spd
km/h
Gust
km/h
Spd
kts
Gust
kts
26/11:30pm 9.2 7.1 6.6 84 1.2 WNW 7 11 4 6 - - 1.8
26/11:00pm 9.0 7.0 6.3 83 1.3 W 6 11 3 6 - - 1.8
26/10:30pm 10.0 8.0 7.1 82 1.4 W 7 13 4 7 - - 1.8
26/10:00pm 9.7 7.9 7.0 83 1.3 W 6 9 3 5 - - 1.8
26/09:30pm 9.0 6.8 6.1 82 1.4 WNW 7 11 4 6 - - 1.8
26/09:00pm 9.4 6.9 6.5 82 1.4 WNW 9 15 5 8 - - 1.8
26/08:30pm 9.5 7.1 6.9 84 1.2 WNW 9 15 5 8 - - 1.8
26/08:00pm 9.6 7.2 7.0 84 1.2 WNW 9 17 5 9 - - 1.8
26/07:30pm 9.9 7.6 7.3 84 1.3 WNW 9 15 5 8 - - 1.8
26/07:00pm 10.0 7.1 8.3 89 0.8 WNW 13 19 7 10 - - 1.8
26/06:30pm 9.9 7.5 8.7 92 0.6 WNW 11 19 6 10 - - 1.8
26/06:00pm 9.5 7.9 8.1 91 0.7 W 6 11 3 6 - - 1.8
26/05:30pm 10.1 8.5 8.9 92 0.6 WNW 7 11 4 6 - - 1.8
26/05:00pm 10.6 9.2 9.4 92 0.6 WNW 7 13 4 7 - - 1.8
26/04:30pm 10.8 9.1 9.7 93 0.6 W 9 15 5 8 - - 1.8
26/04:00pm 11.2 9.2 10.0 92 0.6 WNW 11 24 6 13 - - 1.8
26/03:30pm 13.5 9.1 8.8 73 2.4 W 22 39 12 21 - - 0.2
26/03:20pm 15.6 9.8 7.9 60 3.9 W 28 48 15 26 - - 0.0
26/03:00pm 17.1 14.0 8.8 58 4.3 W 15 24 8 13 - - 0.0
26/02:30pm 19.0 15.8 8.6 51 5.5 W 15 24 8 13 - - 0.0
26/02:00pm 17.9 13.8 7.9 52 5.2 W 19 37 10 20 - - 0.0
26/01:30pm 22.3 18.8 7.3 38 7.9 WNW 15 26 8 14 - - 0.0
26/01:00pm 21.8 18.4 7.6 40 7.5 WNW 15 24 8 13 - - 0.0
26/12:30pm 21.8 18.7 9.0 44 6.9 WNW 15 28 8 15 - - 0.0
26/12:00pm 21.6 19.5 11.0 51 5.9 WNW 13 26 7 14 - - 0.0
26/11:30am 19.5 17.1 10.2 55 5.1 WNW 13 24 7 13 - - 0.0
26/11:00am 20.4 18.1 11.6 57 4.9 WNW 15 26 8 14 - - 0.0
26/10:30am 20.6 18.6 12.8 61 4.5 WNW 15 22 8 12 - - 0.0
26/10:00am 20.1 18.8 13.6 66 3.8 WNW 13 28 7 15 - - 0.0
26/09:30am 19.8 19.3 14.8 73 3.0 WNW 11 17 6 9 - - 0.0
26/09:00am 18.5 18.2 15.4 82 1.8 NW 11 19 6 10 - - 4.0
26/08:30am 17.6 18.0 15.2 86 1.4 NW 7 15 4 8 - - 4.0
26/08:00am 16.0 17.2 15.8 99 0.1 NW 4 7 2 4 - - 3.8
26/07:30am 14.9 16.1 14.9 100 0.0 NNE 2 7 1 4 - - 3.8
26/07:00am 14.5 15.9 14.5 100 0.0 CALM 0 0 0 0 - - 3.8
26/06:30am 14.6 15.7 14.6 100 0.0 NW 2 4 1 2 - - 3.8
26/06:00am 14.6 15.3 14.6 100 0.0 NNW 4 9 2 5 - - 3.8
26/05:30am 14.0 14.8 13.8 99 0.1 NNW 2 4 1 2 - - 3.8
26/05:00am 14.6 15.7 14.6 100 0.0 NW 2 4 1 2 - - 3.8
26/04:30am 14.8 16.0 14.8 100 0.0 NNW 2 6 1 3 - - 3.8
26/04:00am 14.8 15.5 14.6 99 0.1 NW 4 6 2 3 - - 3.8
26/03:30am 15.2 16.1 15.2 100 0.0 NW 4 6 2 3 - - 3.8
26/03:00am 15.2 16.1 15.0 99 0.1 NNW 4 7 2 4 - - 3.8
26/02:30am 15.3 16.2 15.1 99 0.1 WNW 4 7 2 4 - - 3.8
26/02:00am 15.4 16.3 15.1 98 0.2 NNW 4 6 2 3 - - 3.8
26/01:30am 15.8 16.9 15.5 98 0.2 NNW 4 7 2 4 - - 3.8
26/01:00am 15.8 16.9 15.5 98 0.2 NW 4 7 2 4 - - 3.8
26/12:30am 16.3 17.0 16.1 99 0.1 NNW 7 13 4 7 - - 3.8
26/12:00am 16.2 17.0 15.9 98 0.2 NNW 6 11 3 6 - - 3.8
 
Date/Time
EST
Temp
°C
App
Temp
°C
Dew
Point
°C
Rel
Hum
%
Delta-T
°C
Wind Press
QNH
hPa
Press
MSL
hPa
Rain since
9am
mm
Dir  Spd
km/h
Gust
km/h
Spd
kts
Gust
kts
25/11:30pm 16.2 17.3 15.7 97 0.3 NW 4 7 2 4 - - 3.8
25/11:00pm 16.6 17.3 16.1 97 0.3 NNW 7 17 4 9 - - 3.8
25/10:30pm 16.6 17.3 16.1 97 0.3 NNW 7 11 4 6 - - 3.8

Latest Capital City Observations: Canberra | Sydney | Melbourne | Brisbane | Adelaide | Perth | Hobart | Darwin

Other Formats:

Comma delimited format used in spreadsheet applications
http://www.bom.gov.au/fwo/IDN60901/IDN60901.95774.axf

JavaScript Object Notation format (JSON) in row-major order
http://www.bom.gov.au/fwo/IDN60901/IDN60901.95774.json